Time;durP1;ratioP1;P1;durP2;ratioP2;P2;SDS_P1;SDS_P2;PMS_P1;PMS_P2;Temp;Humidity;BMP_temperature;BMP_pressure;BME280_temperature;BME280_humidity;BME280_pressure;Samples;Min_cycle;Max_cycle;Signal;HPM_P1;HPM_P2
2021/03/15 00:00:07;;;;;;;6.90;5.55;;;;;;;4.20;73.87;98713.13;5092099;28;20048;-64
2021/03/15 00:02:37;;;;;;;7.25;5.80;;;;;;;4.29;73.78;98709.59;5091908;28;20055;-64
2021/03/15 00:05:05;;;;;;;11.50;5.95;;;;;;;4.35;73.62;98716.00;5091807;28;20040;-64
2021/03/15 00:07:32;;;;;;;10.52;5.30;;;;;;;4.40;73.58;98709.31;5091711;28;20047;-64
2021/03/15 00:09:59;;;;;;;8.32;5.20;;;;;;;4.48;73.42;98701.50;5092001;28;20047;-64
2021/03/15 00:12:26;;;;;;;7.40;5.03;;;;;;;4.45;73.29;98706.25;5091919;28;20043;-64
2021/03/15 00:14:53;;;;;;;10.20;5.15;;;;;;;4.46;73.20;98697.41;5091754;28;20044;-65
2021/03/15 00:17:20;;;;;;;8.68;5.00;;;;;;;4.48;73.33;98682.34;5091634;28;20047;-65
2021/03/15 00:19:48;;;;;;;6.95;4.18;;;;;;;4.50;73.12;98680.41;5091762;28;20150;-65
2021/03/15 00:22:14;;;;;;;9.38;5.20;;;;;;;4.55;73.30;98685.19;5091968;28;20044;-65
2021/03/15 00:24:41;;;;;;;7.60;4.75;;;;;;;4.58;73.13;98690.13;5091807;28;20493;-65
2021/03/15 00:27:08;;;;;;;8.20;4.60;;;;;;;4.60;73.05;98694.19;5092104;28;20498;-65
2021/03/15 00:29:34;;;;;;;7.57;4.20;;;;;;;4.62;72.93;98686.19;5093452;28;20055;-65
2021/03/15 00:32:01;;;;;;;10.40;4.20;;;;;;;4.64;73.02;98681.63;5095845;28;20048;-64
2021/03/15 00:34:28;;;;;;;7.93;4.90;;;;;;;4.69;72.83;98681.94;5095887;28;20047;-65
2021/03/15 00:36:56;;;;;;;11.48;5.60;;;;;;;4.68;72.79;98678.53;5096025;28;20048;-65
2021/03/15 00:39:22;;;;;;;11.73;5.13;;;;;;;4.74;72.69;98679.72;5095803;28;20036;-64
2021/03/15 00:41:49;;;;;;;10.07;4.60;;;;;;;4.74;72.78;98674.47;5095926;28;20051;-64
2021/03/15 00:44:16;;;;;;;9.10;4.55;;;;;;;4.77;72.55;98668.06;5095769;28;20044;-66
2021/03/15 00:46:42;;;;;;;12.15;4.55;;;;;;;4.71;72.53;98669.53;5094170;28;20106;-65
2021/03/15 00:49:09;;;;;;;11.48;5.07;;;;;;;4.68;72.39;98657.56;5093842;28;20134;-65
2021/03/15 00:51:36;;;;;;;7.80;4.57;;;;;;;4.63;72.62;98651.19;5093940;28;20050;-65
2021/03/15 00:54:04;;;;;;;9.18;4.45;;;;;;;4.67;72.43;98649.88;5095163;28;20374;-65
2021/03/15 00:56:33;;;;;;;10.20;5.03;;;;;;;4.67;72.44;98657.75;5093960;28;20456;-65
2021/03/15 00:58:59;;;;;;;11.25;4.95;;;;;;;4.64;72.29;98653.63;5094837;28;20486;-64
2021/03/15 01:01:37;;;;;;;14.82;4.55;;;;;;;4.57;72.52;98657.88;5095748;28;20491;-64
2021/03/15 01:04:07;;;;;;;11.10;4.50;;;;;;;4.50;72.65;98642.97;5093705;28;20047;-65
2021/03/15 01:06:43;;;;;;;10.23;4.70;;;;;;;4.47;72.90;98641.47;5093746;28;20048;-64
2021/03/15 01:09:22;;;;;;;14.35;4.90;;;;;;;4.48;72.89;98637.84;5094699;28;20051;-64
2021/03/15 01:11:54;;;;;;;11.32;5.70;;;;;;;4.50;72.98;98635.09;5094878;28;20490;-64
2021/03/15 01:14:22;;;;;;;10.80;5.60;;;;;;;4.44;73.22;98626.06;5093314;28;20415;-64
2021/03/15 01:16:59;;;;;;;13.15;5.75;;;;;;;4.45;73.20;98617.25;5093573;28;20498;-64
2021/03/15 01:19:30;;;;;;;14.02;5.85;;;;;;;4.40;73.31;98603.81;5093171;28;20048;-64
2021/03/15 01:21:57;;;;;;;14.00;6.15;;;;;;;4.42;73.51;98607.09;5093362;28;20498;-66
2021/03/15 01:24:25;;;;;;;13.13;5.63;;;;;;;4.42;73.32;98601.84;5094513;28;20098;-65
2021/03/15 01:26:52;;;;;;;13.90;5.70;;;;;;;4.38;73.76;98605.78;5094692;28;20048;-65
2021/03/15 01:29:18;;;;;;;11.55;6.15;;;;;;;4.42;73.81;98596.63;5093078;28;20101;-66
2021/03/15 01:31:45;;;;;;;13.63;6.07;;;;;;;4.34;73.97;98579.09;5095202;28;20067;-66
2021/03/15 01:34:12;;;;;;;9.98;5.65;;;;;;;4.33;74.01;98576.66;5100578;28;20044;-65
2021/03/15 01:36:39;;;;;;;8.98;4.93;;;;;;;4.33;74.23;98571.41;5100653;28;20036;-66
2021/03/15 01:39:06;;;;;;;15.75;6.15;;;;;;;4.37;74.42;98570.94;5094481;28;20056;-66
2021/03/15 01:41:34;;;;;;;12.75;5.15;;;;;;;4.38;74.11;98569.94;5093818;28;20044;-64
2021/03/15 01:44:00;;;;;;;11.77;5.13;;;;;;;4.38;74.08;98563.91;5094210;28;20036;-64
2021/03/15 01:46:27;;;;;;;12.95;5.03;;;;;;;4.43;74.19;98561.63;5094124;28;20040;-64
2021/03/15 01:48:54;;;;;;;11.00;4.55;;;;;;;4.44;74.12;98550.97;5093951;28;20115;-63
2021/03/15 01:51:21;;;;;;;9.85;4.50;;;;;;;4.50;74.28;98549.53;5094204;28;20538;-63
2021/03/15 01:53:48;;;;;;;10.55;4.32;;;;;;;4.48;74.13;98539.22;5094166;28;20051;-64
2021/03/15 01:56:15;;;;;;;9.98;3.95;;;;;;;4.44;74.21;98537.88;5093877;28;20093;-64
2021/03/15 01:58:45;;;;;;;17.20;5.45;;;;;;;4.53;74.14;98530.06;5094034;28;20047;-65
2021/03/15 02:01:12;;;;;;;13.07;4.78;;;;;;;4.50;74.27;98535.63;5093937;28;20048;-65
2021/03/15 02:03:39;;;;;;;13.05;5.10;;;;;;;4.51;74.30;98526.78;5093819;28;20048;-65
2021/03/15 02:06:06;;;;;;;12.73;4.65;;;;;;;4.52;74.19;98523.19;5093770;28;20040;-64
2021/03/15 02:08:33;;;;;;;14.63;4.93;;;;;;;4.48;74.15;98520.88;5093871;28;20043;-65
2021/03/15 02:11:07;;;;;;;16.13;5.22;;;;;;;4.42;74.60;98511.06;5092656;28;20052;-64
2021/03/15 02:13:53;;;;;;;9.40;4.47;;;;;;;4.48;74.63;98510.41;5093923;28;20044;-64
2021/03/15 02:16:26;;;;;;;13.52;5.10;;;;;;;4.56;74.48;98495.72;5093632;28;20513;-65
2021/03/15 02:19:06;;;;;;;13.85;5.15;;;;;;;4.56;74.58;98487.84;5093362;28;20491;-66
2021/03/15 02:22:11;;;;;;;12.35;5.20;;;;;;;4.57;74.51;98481.63;5093676;28;20040;-65
2021/03/15 02:24:54;;;;;;;10.77;4.32;;;;;;;4.55;74.70;98481.81;5093314;28;20040;-65
2021/03/15 02:28:12;;;;;;;10.38;4.43;;;;;;;4.53;74.79;98475.94;5093471;28;20055;-66
2021/03/15 02:30:49;;;;;;;13.10;4.60;;;;;;;4.48;74.92;98470.34;5018281;28;20077;-65
2021/03/15 02:33:50;;;;;;;12.13;4.70;;;;;;;4.55;74.96;98475.75;5083276;28;20048;-66
2021/03/15 02:36:19;;;;;;;13.82;5.20;;;;;;;4.50;74.98;98470.19;5093208;28;20040;-65
2021/03/15 02:38:47;;;;;;;7.57;4.72;;;;;;;4.50;75.14;98462.34;5093093;28;20059;-65
2021/03/15 02:41:18;;;;;;;12.85;5.25;;;;;;;4.54;75.24;98445.31;5093606;28;20123;-64
2021/03/15 02:43:48;;;;;;;6.93;4.43;;;;;;;4.59;74.98;98438.59;5093118;28;20051;-65
2021/03/15 02:46:17;;;;;;;11.43;4.93;;;;;;;4.55;75.10;98441.72;5092976;28;20050;-65
2021/03/15 02:48:46;;;;;;;10.90;4.63;;;;;;;4.56;75.10;98433.69;5092861;28;20078;-63
2021/03/15 02:51:16;;;;;;;10.70;4.47;;;;;;;4.56;75.13;98423.22;5092841;28;20051;-64
2021/03/15 02:53:45;;;;;;;12.02;4.63;;;;;;;4.52;75.19;98419.28;5092048;28;20040;-64
2021/03/15 02:56:18;;;;;;;10.00;4.22;;;;;;;4.52;75.29;98419.28;5092777;28;20059;-64
2021/03/15 02:58:48;;;;;;;8.25;4.28;;;;;;;4.50;75.30;98405.56;5092795;28;20126;-65
2021/03/15 03:01:18;;;;;;;13.20;5.15;;;;;;;4.45;75.42;98407.88;5092783;28;20043;-66
2021/03/15 03:03:46;;;;;;;12.10;4.93;;;;;;;4.46;75.43;98397.22;5092584;28;20040;-65
2021/03/15 03:06:15;;;;;;;12.20;5.22;;;;;;;4.48;75.41;98391.81;5092637;28;20040;-65
2021/03/15 03:08:44;;;;;;;10.65;4.72;;;;;;;4.43;75.53;98388.88;5092478;28;20070;-66
2021/03/15 03:11:12;;;;;;;11.55;4.25;;;;;;;4.34;75.78;98377.59;5092396;28;20056;-65
2021/03/15 03:13:41;;;;;;;13.57;4.43;;;;;;;4.33;75.84;98381.19;5092588;28;20044;-64
2021/03/15 03:16:09;;;;;;;13.82;4.90;;;;;;;4.35;76.02;98371.38;5090995;28;20048;-64
2021/03/15 03:18:37;;;;;;;14.13;5.05;;;;;;;4.33;76.06;98373.34;5092349;28;20052;-64
2021/03/15 03:21:07;;;;;;;16.10;5.30;;;;;;;4.35;76.16;98358.28;5092353;28;20040;-64
2021/03/15 03:23:36;;;;;;;15.15;5.45;;;;;;;4.34;76.18;98353.22;5092376;28;20040;-64
2021/03/15 03:26:05;;;;;;;12.60;4.25;;;;;;;4.36;76.29;98359.09;5092253;28;20117;-64
2021/03/15 03:28:33;;;;;;;10.68;4.55;;;;;;;4.33;76.42;98373.34;5090922;28;20096;-64
2021/03/15 03:31:04;;;;;;;13.18;4.15;;;;;;;4.33;76.71;98372.53;5092194;28;20075;-66
2021/03/15 03:33:31;;;;;;;9.95;4.30;;;;;;;4.38;76.63;98367.63;5092327;28;20040;-64
2021/03/15 03:35:58;;;;;;;10.70;3.90;;;;;;;4.43;76.72;98362.69;5092034;28;20412;-65
2021/03/15 03:38:38;;;;;;;11.35;3.90;;;;;;;4.47;76.56;98359.59;5090814;28;20574;-64
2021/03/15 03:41:06;;;;;;;7.82;3.72;;;;;;;4.38;76.48;98363.19;5092158;28;20040;-65
2021/03/15 03:43:33;;;;;;;11.05;3.65;;;;;;;4.33;76.51;98360.25;5091956;28;20040;-65
2021/03/15 03:46:00;;;;;;;10.20;3.70;;;;;;;4.32;76.63;98348.13;5092008;28;20405;-65
2021/03/15 03:48:29;;;;;;;8.80;3.17;;;;;;;4.32;76.67;98349.94;5091991;28;20126;-65
2021/03/15 03:50:56;;;;;;;4.55;3.17;;;;;;;4.30;76.72;98349.28;5092039;28;20062;-66
2021/03/15 03:53:25;;;;;;;7.10;3.00;;;;;;;4.32;76.61;98360.41;5092048;28;20047;-65
2021/03/15 03:55:58;;;;;;;8.80;3.72;;;;;;;4.35;76.85;98355.66;5091897;28;20039;-66
2021/03/15 03:58:30;;;;;;;8.57;3.30;;;;;;;4.40;76.62;98349.94;5092018;28;20044;-65
2021/03/15 04:00:59;;;;;;;4.82;2.90;;;;;;;4.41;76.55;98348.97;5090681;28;20066;-67
2021/03/15 04:03:29;;;;;;;8.15;3.47;;;;;;;4.40;76.71;98349.94;5091919;28;20123;-67
2021/03/15 04:06:00;;;;;;;4.60;2.78;;;;;;;4.36;76.69;98338.97;5095796;28;20051;-67
2021/03/15 04:08:30;;;;;;;5.25;3.03;;;;;;;4.20;76.78;98345.03;5096029;28;20051;-66
2021/03/15 04:10:58;;;;;;;5.80;3.05;;;;;;;4.18;77.03;98344.38;5096013;28;20502;-66
2021/03/15 04:13:29;;;;;;;6.05;3.15;;;;;;;4.23;76.96;98341.28;5096075;28;20047;-66
2021/03/15 04:15:56;;;;;;;3.83;3.10;;;;;;;4.31;76.88;98343.88;5095924;28;20044;-66
2021/03/15 04:18:26;;;;;;;6.07;2.85;;;;;;;4.33;76.86;98341.13;5095813;28;20517;-65
2021/03/15 04:20:56;;;;;;;6.10;3.30;;;;;;;4.26;76.94;98350.59;5095868;28;20040;-65
2021/03/15 04:23:28;;;;;;;3.60;2.63;;;;;;;4.19;76.77;98340.78;5094795;28;20044;-65
2021/03/15 04:25:56;;;;;;;4.20;2.85;;;;;;;4.15;77.13;98330.81;5095892;28;20456;-65
2021/03/15 04:28:27;;;;;;;4.15;2.75;;;;;;;4.23;76.84;98330.81;5095684;28;20044;-65
2021/03/15 04:30:54;;;;;;;3.22;2.38;;;;;;;4.13;76.84;98340.63;5094378;28;20056;-65
2021/03/15 04:33:23;;;;;;;3.10;2.53;;;;;;;4.15;77.04;98339.47;5095611;28;20536;-65
2021/03/15 04:35:52;;;;;;;4.57;3.13;;;;;;;4.16;77.21;98325.44;5095457;28;20035;-65
2021/03/15 04:38:20;;;;;;;6.63;3.10;;;;;;;4.12;76.90;98328.50;5095450;28;20044;-66
2021/03/15 04:40:49;;;;;;;5.25;2.80;;;;;;;4.15;77.12;98321.16;5094378;28;20478;-65
2021/03/15 04:43:17;;;;;;;5.03;2.65;;;;;;;4.15;77.13;98323.78;5095356;28;20036;-65
2021/03/15 04:45:45;;;;;;;2.47;2.22;;;;;;;4.14;77.17;98321.31;5095249;28;20089;-65
2021/03/15 04:48:15;;;;;;;3.75;2.67;;;;;;;4.18;76.82;98312.16;5095272;28;20405;-65
2021/03/15 04:50:43;;;;;;;3.92;1.95;;;;;;;4.19;76.87;98316.41;5095470;28;20066;-66
2021/03/15 04:53:14;;;;;;;3.47;2.17;;;;;;;4.15;76.81;98297.59;5094156;28;20059;-65
2021/03/15 04:55:41;;;;;;;3.42;2.05;;;;;;;4.06;76.98;98308.25;5095195;28;20554;-65
2021/03/15 04:58:10;;;;;;;4.55;2.58;;;;;;;4.07;77.04;98299.41;5095153;28;20044;-65
2021/03/15 05:00:39;;;;;;;4.22;2.67;;;;;;;4.11;77.02;98298.91;5093672;28;20509;-65
2021/03/15 05:03:09;;;;;;;2.00;1.80;;;;;;;4.06;76.94;98290.75;5093896;28;20052;-65
2021/03/15 05:05:38;;;;;;;2.88;1.95;;;;;;;4.02;76.95;98291.25;5097353;28;20048;-65
2021/03/15 05:08:07;;;;;;;2.20;1.90;;;;;;;4.01;77.24;98290.44;5100941;28;20054;-66
2021/03/15 05:10:35;;;;;;;2.55;1.90;;;;;;;4.01;77.18;98279.97;5099620;28;20048;-66
2021/03/15 05:13:04;;;;;;;2.75;2.08;;;;;;;3.93;77.04;98272.94;5100922;28;20419;-66
2021/03/15 05:15:32;;;;;;;1.80;1.45;;;;;;;4.00;77.09;98274.88;5097675;28;20048;-65
2021/03/15 05:18:00;;;;;;;2.95;1.65;;;;;;;3.95;76.92;98270.16;5094479;28;20494;-64
2021/03/15 05:20:28;;;;;;;1.90;1.60;;;;;;;3.92;77.18;98268.69;5094754;28;20115;-65
2021/03/15 05:22:57;;;;;;;4.32;2.25;;;;;;;4.02;77.21;98273.75;5094766;28;20036;-66
2021/03/15 05:25:25;;;;;;;2.25;1.98;;;;;;;4.03;77.29;98259.69;5093447;28;20391;-66
2021/03/15 05:27:52;;;;;;;2.47;2.10;;;;;;;4.07;77.28;98257.56;5094716;28;20051;-67
2021/03/15 05:30:21;;;;;;;1.50;1.38;;;;;;;4.00;77.14;98257.41;5094537;28;20040;-66
2021/03/15 05:32:51;;;;;;;1.80;1.70;;;;;;;3.95;77.12;98268.34;5094627;28;20055;-66
2021/03/15 05:35:19;;;;;;;3.15;1.45;;;;;;;3.93;77.16;98267.69;5094389;28;20097;-66
2021/03/15 05:37:48;;;;;;;1.50;1.40;;;;;;;3.98;77.11;98272.44;5094535;28;20044;-66
2021/03/15 05:40:18;;;;;;;3.65;1.70;;;;;;;3.89;77.18;98261.16;5094336;28;20066;-66
2021/03/15 05:43:05;;;;;;;2.47;1.63;;;;;;;3.85;77.27;98272.94;5093196;28;20055;-66
2021/03/15 05:45:57;;;;;;;1.60;1.50;;;;;;;3.81;77.17;98273.41;5094415;28;20067;-66
2021/03/15 05:49:11;;;;;;;2.20;1.23;;;;;;;3.76;77.44;98273.91;5094328;28;20689;-67
2021/03/15 05:52:05;;;;;;;1.50;1.40;;;;;;;3.73;77.50;98269.00;5093088;28;20062;-66
2021/03/15 05:55:07;;;;;;;1.40;1.30;;;;;;;3.73;77.71;98275.03;5094434;28;20040;-67
2021/03/15 05:58:13;;;;;;;2.67;1.63;;;;;;;3.77;77.58;98272.91;5094417;28;20101;-66
2021/03/15 06:00:55;;;;;;;1.67;1.20;;;;;;;3.70;77.49;98269.31;5094275;28;20044;-65
2021/03/15 06:03:51;;;;;;;2.35;1.25;;;;;;;3.72;77.75;98270.78;5096045;28;20467;-65
2021/03/15 06:06:21;;;;;;;0.90;0.90;;;;;;;3.67;77.58;98277.47;5097044;28;20071;-65
2021/03/15 06:08:55;;;;;;;1.67;1.48;;;;;;;3.70;77.91;98267.50;5096020;28;20051;-65
2021/03/15 06:11:27;;;;;;;1.30;1.20;;;;;;;3.82;77.69;98269.81;5095692;28;20565;-65
2021/03/15 06:13:55;;;;;;;1.95;1.38;;;;;;;3.89;77.53;98268.19;5095793;28;20563;-65
2021/03/15 06:16:22;;;;;;;1.83;1.33;;;;;;;3.92;77.48;98260.84;5095932;28;20067;-64
2021/03/15 06:18:51;;;;;;;1.80;1.40;;;;;;;3.95;77.49;98255.25;5094970;28;20040;-66
2021/03/15 06:21:21;;;;;;;2.67;1.35;;;;;;;3.96;77.54;98253.50;5095120;28;20115;-65
2021/03/15 06:23:47;;;;;;;3.20;1.80;;;;;;;3.96;77.58;98262.16;5094988;28;20044;-66
2021/03/15 06:26:14;;;;;;;2.25;2.00;;;;;;;4.01;77.77;98264.28;5094408;28;20048;-66
2021/03/15 06:28:42;;;;;;;1.60;1.50;;;;;;;4.05;77.59;98267.38;5093913;28;20044;-66
2021/03/15 06:31:11;;;;;;;2.28;1.83;;;;;;;4.02;77.65;98267.69;5095114;28;20044;-66
2021/03/15 06:33:38;;;;;;;2.10;1.67;;;;;;;4.00;77.75;98265.25;5094964;28;20397;-66
2021/03/15 06:36:05;;;;;;;2.20;1.98;;;;;;;4.02;77.66;98276.38;5094577;28;20048;-65
2021/03/15 06:38:33;;;;;;;2.28;1.63;;;;;;;4.06;77.65;98275.06;5094668;28;20043;-66
2021/03/15 06:41:02;;;;;;;1.80;1.58;;;;;;;3.99;77.75;98268.84;5094821;28;20113;-66
2021/03/15 06:43:29;;;;;;;3.28;2.30;;;;;;;4.01;77.80;98271.31;5094702;28;20044;-64
2021/03/15 06:45:57;;;;;;;1.83;1.73;;;;;;;4.06;77.71;98272.44;5094323;28;20486;-67
2021/03/15 06:48:25;;;;;;;4.47;2.03;;;;;;;4.17;77.66;98272.13;5093196;28;20048;-66
2021/03/15 06:50:54;;;;;;;2.33;2.13;;;;;;;4.24;77.71;98272.25;5093179;28;20406;-66
2021/03/15 06:53:21;;;;;;;3.00;1.77;;;;;;;4.32;77.59;98274.88;5093131;28;20051;-66
2021/03/15 06:55:50;;;;;;;2.13;1.95;;;;;;;4.38;77.53;98276.84;5093476;28;20047;-65
2021/03/15 06:58:27;;;;;;;3.97;1.90;;;;;;;4.50;77.43;98266.84;5093899;28;20040;-65
2021/03/15 07:01:15;;;;;;;2.22;2.03;;;;;;;4.49;77.52;98275.69;5092287;28;20047;-66
2021/03/15 07:03:44;;;;;;;3.08;2.20;;;;;;;4.51;77.48;98283.34;5093699;28;20028;-64
2021/03/15 07:06:12;;;;;;;2.50;2.00;;;;;;;4.59;77.39;98281.53;5092523;28;20052;-65
2021/03/15 07:08:39;;;;;;;4.03;2.53;;;;;;;4.67;77.51;98278.09;5093495;28;20040;-66
2021/03/15 07:11:24;;;;;;;2.75;2.53;;;;;;;4.70;77.53;98280.38;5091991;28;20417;-65
2021/03/15 07:13:52;;;;;;;3.47;2.53;;;;;;;4.78;77.32;98290.00;5092101;28;20132;-65
2021/03/15 07:16:28;;;;;;;4.95;3.03;;;;;;;4.82;77.23;98288.69;5093131;28;20078;-65
2021/03/15 07:18:57;;;;;;;3.90;3.30;;;;;;;4.81;77.28;98290.47;5093020;28;20402;-69
2021/03/15 07:21:35;;;;;;;3.40;3.10;;;;;;;4.88;77.49;98293.25;5093030;28;20040;-67
2021/03/15 07:24:02;;;;;;;4.00;3.60;;;;;;;4.91;77.48;98298.97;5092762;28;20059;-65
2021/03/15 07:26:31;;;;;;;4.43;3.88;;;;;;;5.09;77.28;98306.59;5092347;28;20059;-66
2021/03/15 07:28:58;;;;;;;4.72;4.22;;;;;;;5.16;77.46;98301.50;5092482;28;20048;-65
2021/03/15 07:31:29;;;;;;;4.43;4.03;;;;;;;5.30;77.36;98303.38;5092682;28;20044;-66
2021/03/15 07:34:13;;;;;;;5.72;4.65;;;;;;;5.42;77.12;98302.00;5092852;28;20111;-65
2021/03/15 07:36:54;;;;;;;4.10;3.70;;;;;;;5.50;77.17;98309.03;5092531;28;20047;-66
2021/03/15 07:39:23;;;;;;;7.13;5.63;;;;;;;5.52;77.14;98306.25;5091820;28;20101;-65
2021/03/15 07:41:51;;;;;;;6.45;5.63;;;;;;;5.52;77.25;98303.63;5090945;28;20047;-66
2021/03/15 07:44:25;;;;;;;6.97;5.40;;;;;;;5.55;77.10;98311.13;5090818;28;20089;-65
2021/03/15 07:46:55;;;;;;;9.30;5.78;;;;;;;5.51;77.43;98318.53;5092394;28;20077;-65
2021/03/15 07:49:31;;;;;;;8.13;5.97;;;;;;;5.65;77.55;98320.41;5092127;28;20079;-66
2021/03/15 07:52:00;;;;;;;10.45;7.30;;;;;;;5.73;77.49;98327.41;5092446;28;20047;-67
2021/03/15 07:54:30;;;;;;;9.73;7.43;;;;;;;5.83;77.52;98327.19;5092193;28;20039;-65
2021/03/15 07:57:22;;;;;;;9.35;7.65;;;;;;;5.86;77.66;98327.66;5092545;28;20051;-65
2021/03/15 07:59:50;;;;;;;10.55;7.90;;;;;;;5.89;77.59;98327.31;5083861;28;20059;-65
2021/03/15 08:02:22;;;;;;;9.98;7.88;;;;;;;5.93;77.92;98335.69;5092341;28;20052;-65
2021/03/15 08:04:50;;;;;;;8.50;7.00;;;;;;;5.88;77.65;98336.19;5092167;28;20131;-65
2021/03/15 08:07:18;;;;;;;10.50;7.50;;;;;;;5.79;78.01;98334.59;5093005;28;20052;-66
2021/03/15 08:09:46;;;;;;;8.68;7.20;;;;;;;5.78;77.82;98330.34;5092311;28;20506;-66
2021/03/15 08:12:15;;;;;;;10.63;7.63;;;;;;;5.72;78.26;98326.59;5092458;28;20040;-66
2021/03/15 08:14:46;;;;;;;8.02;6.72;;;;;;;5.72;78.29;98333.66;5092445;28;20044;-66
2021/03/15 08:17:17;;;;;;;9.00;6.88;;;;;;;5.74;78.27;98333.47;5092327;28;20055;-66
2021/03/15 08:19:47;;;;;;;8.10;7.20;;;;;;;5.72;78.40;98333.66;5092659;28;20048;-66
2021/03/15 08:22:26;;;;;;;9.75;7.55;;;;;;;5.73;78.68;98343.16;5092513;28;20044;-65
2021/03/15 08:24:57;;;;;;;7.45;6.68;;;;;;;5.90;78.54;98346.50;5092106;28;20033;-65
2021/03/15 08:27:27;;;;;;;9.48;6.93;;;;;;;6.01;78.16;98345.31;5092372;28;20402;-65
2021/03/15 08:29:57;;;;;;;8.63;6.63;;;;;;;6.08;78.21;98340.97;5092634;28;20089;-66
2021/03/15 08:32:26;;;;;;;7.47;6.50;;;;;;;6.17;78.03;98347.81;5092604;28;20498;-66
2021/03/15 08:34:56;;;;;;;7.63;5.88;;;;;;;6.14;78.03;98348.16;5092172;28;20044;-66
2021/03/15 08:37:49;;;;;;;6.32;5.72;;;;;;;6.20;78.26;98369.28;5092478;28;20036;-66
2021/03/15 08:40:52;;;;;;;6.90;6.00;;;;;;;6.18;78.01;98379.13;5092005;28;20051;-65
2021/03/15 08:43:25;;;;;;;6.55;4.97;;;;;;;6.19;77.94;98369.44;5092693;28;20044;-66
2021/03/15 08:45:53;;;;;;;7.82;4.95;;;;;;;6.15;77.79;98379.47;5092682;28;20032;-66
2021/03/15 08:48:41;;;;;;;5.32;4.53;;;;;;;6.08;77.84;98382.97;5103525;28;20040;-66
2021/03/15 08:51:09;;;;;;;5.05;4.15;;;;;;;6.03;77.61;98382.69;5110009;28;20052;-65
2021/03/15 08:53:53;;;;;;;5.10;4.35;;;;;;;6.16;77.58;98396.88;5097134;28;20484;-65
2021/03/15 08:56:37;;;;;;;;;;;;;;;6.20;77.75;98399.94;5095906;28;20048;-65
2021/03/15 08:59:06;;;;;;;6.68;5.10;;;;;;;6.35;77.33;98386.91;5095288;28;19958;-66
2021/03/15 09:01:54;;;;;;;5.68;4.50;;;;;;;6.47;76.99;98392.56;5095223;28;20051;-65
2021/03/15 09:08:10;;;;;;;6.53;3.75;;;;;;;6.75;76.01;98392.81;5077805;28;20059;-65
2021/03/15 09:10:38;;;;;;;4.20;3.80;;;;;;;6.84;76.00;98397.81;5095370;28;20043;-65
2021/03/15 09:13:23;;;;;;;3.38;2.65;;;;;;;6.90;74.95;98402.38;5095638;28;20123;-65
2021/03/15 09:16:04;;;;;;;2.25;1.70;;;;;;;6.87;74.11;98405.34;5095598;28;20375;-65
2021/03/15 09:18:50;;;;;;;2.95;1.42;;;;;;;6.81;73.47;98419.16;5093719;28;20048;-65
2021/03/15 09:21:42;;;;;;;2.92;1.42;;;;;;;6.79;73.10;98420.38;5095228;28;20054;-65
2021/03/15 09:24:40;;;;;;;2.72;1.40;;;;;;;6.83;73.00;98432.16;5094242;28;20401;-64
2021/03/15 09:27:09;;;;;;;1.75;1.13;;;;;;;6.87;72.66;98439.50;5095811;28;20047;-64
2021/03/15 09:29:37;;;;;;;0.90;0.90;;;;;;;6.87;70.63;98442.13;5096051;28;20047;-65
2021/03/15 09:32:07;;;;;;;1.10;0.90;;;;;;;6.83;69.96;98442.66;5094956;28;20482;-64
2021/03/15 09:34:34;;;;;;;0.80;0.80;;;;;;;6.94;70.26;98452.75;5094674;28;20409;-65
2021/03/15 09:37:02;;;;;;;0.73;0.73;;;;;;;7.00;69.59;98459.91;5095196;28;20050;-65
2021/03/15 09:39:31;;;;;;;0.90;0.80;;;;;;;7.01;69.73;98466.78;5094619;28;20066;-63
2021/03/15 09:41:58;;;;;;;1.13;1.08;;;;;;;7.11;69.68;98451.59;5093423;28;20074;-65
2021/03/15 09:44:27;;;;;;;2.03;1.00;;;;;;;7.23;69.46;98478.28;5094400;28;20068;-65
2021/03/15 09:46:55;;;;;;;1.38;1.25;;;;;;;7.17;68.43;98476.34;5094797;28;20044;-66
2021/03/15 09:49:34;;;;;;;1.25;0.98;;;;;;;7.33;68.06;98464.84;5094602;28;20135;-66
2021/03/15 09:52:15;;;;;;;1.10;0.88;;;;;;;7.52;67.76;98474.84;5093441;28;20044;-65
2021/03/15 09:55:05;;;;;;;2.60;1.25;;;;;;;7.65;67.74;98480.28;5094063;28;20066;-66
2021/03/15 09:57:33;;;;;;;1.05;0.90;;;;;;;7.73;67.09;98484.66;5092924;28;20155;-65
2021/03/15 10:00:13;;;;;;;1.23;1.10;;;;;;;7.71;66.84;98484.00;5093114;28;20135;-65
2021/03/15 10:03:04;;;;;;;1.35;1.25;;;;;;;7.51;66.71;98478.50;5090612;28;20131;-65
2021/03/15 10:05:52;;;;;;;1.02;0.90;;;;;;;7.26;67.15;98480.53;5094192;28;20063;-64
2021/03/15 10:08:37;;;;;;;0.88;0.88;;;;;;;7.22;67.08;98488.94;5094231;28;20504;-65
2021/03/15 10:11:42;;;;;;;4.90;2.80;;;;;;;7.35;67.51;98494.44;5103703;28;20101;-65
2021/03/15 10:14:28;;;;;;;3.63;1.38;;;;;;;7.48;67.44;98497.25;5094164;28;20047;-65
2021/03/15 10:17:21;;;;;;;1.63;1.52;;;;;;;7.42;66.11;98501.41;5093895;28;20101;-66
2021/03/15 10:19:57;;;;;;;1.55;1.45;;;;;;;7.40;65.49;98499.97;5092764;28;20594;-65
2021/03/15 10:22:25;;;;;;;2.40;1.73;;;;;;;7.33;65.20;98513.00;5092587;28;20040;-65
2021/03/15 10:24:59;;;;;;;1.95;1.63;;;;;;;7.49;65.48;98512.03;5092371;28;20044;-65
2021/03/15 10:27:31;;;;;;;2.10;1.75;;;;;;;7.63;64.83;98513.03;5092364;28;20070;-66
2021/03/15 10:30:06;;;;;;;1.70;1.30;;;;;;;7.65;64.58;98516.31;5092382;28;20044;-66
2021/03/15 10:32:36;;;;;;;1.95;1.75;;;;;;;7.61;64.54;98515.03;5092319;28;20040;-68
2021/03/15 10:35:08;;;;;;;1.60;1.50;;;;;;;7.63;64.68;98513.88;5092002;28;20422;-66
2021/03/15 10:37:44;;;;;;;1.88;1.52;;;;;;;7.81;64.70;98524.03;5092199;28;20048;-66
2021/03/15 10:40:23;;;;;;;1.88;1.15;;;;;;;7.97;63.42;98519.59;5092232;28;20055;-66
2021/03/15 10:42:51;;;;;;;2.72;1.00;;;;;;;7.92;62.36;98518.31;5093534;28;20036;-66
2021/03/15 10:45:22;;;;;;;2.63;1.45;;;;;;;8.07;61.12;98525.38;5091648;28;20072;-65
2021/03/15 10:48:00;;;;;;;1.52;1.30;;;;;;;8.18;62.07;98527.53;5091961;28;20051;-65
2021/03/15 10:50:32;;;;;;;1.02;0.90;;;;;;;8.19;61.30;98522.09;5091971;28;20047;-65
2021/03/15 10:53:19;;;;;;;1.85;1.00;;;;;;;8.16;60.78;98525.09;5091905;28;20048;-65
2021/03/15 10:55:47;;;;;;;0.90;0.90;;;;;;;8.22;60.87;98520.09;5091838;28;20104;-66
2021/03/15 10:58:18;;;;;;;1.83;1.20;;;;;;;8.12;60.62;98534.38;5091564;28;20139;-64
2021/03/15 11:01:06;;;;;;;0.85;0.80;;;;;;;8.00;60.94;98527.09;5092479;28;20085;-65
2021/03/15 11:03:40;;;;;;;1.52;1.35;;;;;;;8.08;60.34;98532.25;5091609;28;20050;-64
2021/03/15 11:06:19;;;;;;;1.23;1.13;;;;;;;8.32;59.69;98524.06;5091575;28;20044;-64
2021/03/15 11:09:09;;;;;;;0.90;0.82;;;;;;;8.52;58.11;98529.59;5091563;28;20051;-66
2021/03/15 11:11:36;;;;;;;1.08;0.85;;;;;;;8.46;58.34;98529.53;5092963;28;20057;-65
2021/03/15 11:14:13;;;;;;;1.13;0.70;;;;;;;8.41;56.75;98522.19;5090751;28;20051;-66
2021/03/15 11:17:01;;;;;;;2.28;1.00;;;;;;;8.34;57.09;98522.06;5091936;28;20066;-66
2021/03/15 11:19:51;;;;;;;2.95;1.00;;;;;;;8.29;55.75;98527.09;5091526;28;20506;-65
2021/03/15 11:22:19;;;;;;;0.77;0.60;;;;;;;8.31;56.58;98529.53;5093023;28;20039;-65
2021/03/15 11:25:06;;;;;;;2.80;0.90;;;;;;;8.31;55.56;98521.63;5091410;28;20051;-66
2021/03/15 11:27:38;;;;;;;1.23;0.90;;;;;;;8.17;54.24;98533.81;5091399;28;20062;-65
2021/03/15 11:30:20;;;;;;;3.00;1.23;;;;;;;8.15;54.54;98541.06;5091383;28;20054;-66
2021/03/15 11:33:09;;;;;;;4.63;3.33;;;;;;;8.12;55.09;98531.75;5088685;28;20044;-65
2021/03/15 11:35:58;;;;;;;3.45;2.28;;;;;;;8.11;54.54;98545.06;5092582;28;20040;-66
2021/03/15 11:38:31;;;;;;;2.97;1.40;;;;;;;8.06;54.38;98543.00;5092605;28;20135;-66
2021/03/15 11:41:01;;;;;;;1.85;1.27;;;;;;;8.13;54.48;98543.09;5091628;28;20113;-65
2021/03/15 11:43:30;;;;;;;1.40;1.08;;;;;;;8.19;54.18;98544.97;5092126;28;20044;-66
2021/03/15 11:46:02;;;;;;;2.08;1.00;;;;;;;8.32;53.61;98534.59;5093595;28;20471;-65
2021/03/15 11:48:30;;;;;;;2.05;1.30;;;;;;;8.40;54.01;98541.59;5091629;28;20055;-65
2021/03/15 11:51:35;;;;;;;;;;;;;;;8.58;53.45;98543.84;5092702;28;20047;-65
2021/03/15 11:54:17;;;;;;;2.63;1.20;;;;;;;8.76;53.51;98532.88;5091221;28;19959;-65
2021/03/15 11:56:45;;;;;;;3.25;1.10;;;;;;;9.02;53.21;98529.66;5092998;28;20036;-66
2021/03/15 11:59:12;;;;;;;1.88;1.02;;;;;;;9.24;52.02;98535.75;5091384;28;20540;-66
2021/03/15 12:01:44;;;;;;;1.30;1.00;;;;;;;9.30;51.00;98527.88;5091564;28;20464;-67
2021/03/15 12:04:12;;;;;;;1.30;0.77;;;;;;;9.18;50.47;98532.03;5091345;28;20040;-67
2021/03/15 12:07:00;;;;;;;3.28;1.20;;;;;;;9.11;51.15;98528.56;5091225;28;20068;-67
2021/03/15 12:09:35;;;;;;;2.72;1.05;;;;;;;9.15;51.48;98532.44;5091250;28;20098;-66